Time;durP1;ratioP1;P1;durP2;ratioP2;P2;SDS_P1;SDS_P2;PMS_P1;PMS_P2;Temp;Humidity;BMP_temperature;BMP_pressure;BME280_temperature;BME280_humidity;BME280_pressure;Samples;Min_cycle;Max_cycle;Signal;HPM_P1;HPM_P2
2020/12/23 03:45:51;;;;;;;3.00;0.73;;;15.70;78.50;;;;;;5706461;23;20078;-75
2020/12/23 03:48:17;;;;;;;1.20;0.60;;;15.70;78.80;;;;;;4953913;29;20030;-75
2020/12/23 03:50:43;;;;;;;5.55;0.70;;;15.80;78.60;;;;;;4965144;29;20042;-75
2020/12/23 03:53:09;;;;;;;0.80;0.70;;;15.80;78.60;;;;;;4964838;29;20071;-75
2020/12/23 03:55:35;;;;;;;1.75;0.85;;;15.80;78.90;;;;;;4948000;29;20050;-77
2020/12/23 03:58:01;;;;;;;1.35;0.40;;;15.80;78.50;;;;;;4947931;29;20198;-75
2020/12/23 04:00:26;;;;;;;1.05;0.70;;;15.60;78.90;;;;;;4945327;29;20016;-75
2020/12/23 04:02:52;;;;;;;0.60;0.50;;;15.60;78.90;;;;;;4928330;29;20027;-75
2020/12/23 04:05:17;;;;;;;1.27;0.80;;;15.60;79.00;;;;;;4929233;29;20020;-75
2020/12/23 04:07:43;;;;;;;1.05;0.57;;;15.70;79.10;;;;;;4929166;29;20039;-75
2020/12/23 04:10:09;;;;;;;1.20;0.80;;;15.80;78.70;;;;;;4946098;29;20214;-75
2020/12/23 04:12:38;;;;;;;1.85;0.93;;;15.90;78.60;;;;;;4928935;29;20067;-75
2020/12/23 04:15:08;;;;;;;0.98;0.65;;;15.80;78.50;;;;;;4946134;29;20016;-75
2020/12/23 04:17:34;;;;;;;0.85;0.60;;;15.90;78.30;;;;;;4959613;29;20365;-75
2020/12/23 04:20:00;;;;;;;0.98;0.60;;;15.90;78.10;;;;;;4947866;29;20295;-75
2020/12/23 04:22:28;;;;;;;2.28;0.57;;;16.00;77.80;;;;;;4947980;29;20195;-76
2020/12/23 04:24:58;;;;;;;0.85;0.80;;;16.00;77.70;;;;;;4965135;29;20516;-75
2020/12/23 04:27:24;;;;;;;7.07;1.90;;;16.10;77.30;;;;;;4947989;29;20210;-75
2020/12/23 04:29:50;;;;;;;4.15;1.60;;;16.00;76.30;;;;;;4965087;29;20020;-77
2020/12/23 04:32:16;;;;;;;3.88;1.85;;;15.90;76.00;;;;;;4964852;29;20023;-75
2020/12/23 04:34:42;;;;;;;3.97;2.17;;;15.80;75.80;;;;;;4947812;29;20073;-75
2020/12/23 04:37:07;;;;;;;6.40;2.33;;;15.80;75.60;;;;;;4965074;29;20027;-75
2020/12/23 04:39:33;;;;;;;3.83;1.80;;;15.70;75.30;;;;;;4965121;29;20086;-75
2020/12/23 04:41:59;;;;;;;4.15;2.30;;;15.60;75.30;;;;;;4964805;29;20030;-75
2020/12/23 04:44:24;;;;;;;6.72;2.58;;;15.40;75.20;;;;;;4964932;29;20066;-75
2020/12/23 04:46:51;;;;;;;3.70;1.90;;;15.30;75.30;;;;;;4926192;29;20039;-75
2020/12/23 04:49:21;;;;;;;4.53;2.70;;;15.30;75.20;;;;;;4926708;29;20315;-78
2020/12/23 04:51:55;;;;;;;3.63;2.33;;;15.10;75.30;;;;;;4910032;29;20300;-75
2020/12/23 04:54:22;;;;;;;6.88;3.53;;;15.10;75.50;;;;;;4926894;29;20334;-75
2020/12/23 04:56:49;;;;;;;3.55;1.95;;;15.00;75.40;;;;;;4926581;29;20020;-75
2020/12/23 04:59:15;;;;;;;6.90;2.83;;;14.80;75.70;;;;;;4926670;29;20131;-76
2020/12/23 05:01:41;;;;;;;4.85;2.25;;;14.70;76.20;;;;;;4926822;29;20387;-74
2020/12/23 05:04:07;;;;;;;5.72;3.08;;;14.70;76.50;;;;;;4909521;29;20339;-75
2020/12/23 05:06:36;;;;;;;6.10;2.78;;;14.70;76.50;;;;;;4926538;29;20040;-74
2020/12/23 05:09:06;;;;;;;8.32;3.13;;;14.60;76.40;;;;;;4926559;29;20027;-75
2020/12/23 05:11:33;;;;;;;5.30;2.60;;;14.60;76.60;;;;;;4926233;29;20020;-74
2020/12/23 05:14:06;;;;;;;;;;;14.40;76.80;;;;;;4912810;29;20280;-75
2020/12/23 05:16:32;;;;;;;8.15;2.47;;;14.40;77.00;;;;;;4935281;29;20129;-75
2020/12/23 05:18:59;;;;;;;5.95;2.67;;;14.40;77.10;;;;;;4931719;29;20063;-74
2020/12/23 05:21:26;;;;;;;3.63;2.40;;;14.30;77.30;;;;;;4931748;29;20067;-74
2020/12/23 05:23:53;;;;;;;6.07;2.30;;;14.20;77.30;;;;;;4948898;29;20057;-75
2020/12/23 05:26:21;;;;;;;5.72;3.20;;;14.20;77.30;;;;;;4948766;29;20027;-74
2020/12/23 05:28:47;;;;;;;4.55;2.97;;;14.00;78.00;;;;;;4931912;29;20095;-74
2020/12/23 05:31:14;;;;;;;6.15;2.75;;;13.90;78.50;;;;;;4948621;29;20024;-74
2020/12/23 05:33:41;;;;;;;;;;;13.80;78.70;;;;;;4932134;29;20152;-75
2020/12/23 05:36:09;;;;;;;7.90;3.17;;;13.90;78.70;;;;;;4948660;29;19946;-74
2020/12/23 05:38:36;;;;;;;5.68;2.90;;;13.80;78.50;;;;;;4948702;29;20028;-74
2020/12/23 05:41:07;;;;;;;7.82;2.47;;;13.70;78.80;;;;;;4931649;29;20221;-77
2020/12/23 05:43:33;;;;;;;4.03;2.47;;;13.70;78.90;;;;;;4948591;29;20028;-75
2020/12/23 05:46:02;;;;;;;9.25;3.65;;;13.80;78.80;;;;;;4930129;29;20036;-74
2020/12/23 05:48:30;;;;;;;6.35;3.22;;;13.70;78.60;;;;;;4948319;29;20159;-75
2020/12/23 05:50:55;;;;;;;3.55;2.65;;;13.70;78.70;;;;;;4931284;29;20250;-75
2020/12/23 05:53:21;;;;;;;5.25;2.88;;;13.70;78.80;;;;;;4931203;29;20114;-75
2020/12/23 05:55:49;;;;;;;6.50;3.00;;;13.70;78.80;;;;;;4948356;29;20319;-74
2020/12/23 05:58:22;;;;;;;4.75;2.90;;;13.70;78.70;;;;;;4948216;29;20019;-75
2020/12/23 06:00:53;;;;;;;7.15;3.63;;;13.70;78.60;;;;;;4947231;29;20027;-74
2020/12/23 06:03:24;;;;;;;11.27;3.75;;;13.80;78.50;;;;;;4930907;29;20165;-74
2020/12/23 06:06:00;;;;;;;5.05;3.15;;;13.70;78.40;;;;;;4930990;29;20016;-74
2020/12/23 06:08:31;;;;;;;7.13;3.63;;;13.60;78.40;;;;;;4930983;29;20315;-74
2020/12/23 06:11:35;;;;;;;10.23;3.60;;;13.60;78.50;;;;;;4948077;29;20126;-74
2020/12/23 06:14:14;;;;;;;7.78;3.85;;;13.60;78.70;;;;;;4945008;29;20087;-75
2020/12/23 06:16:47;;;;;;;8.77;3.92;;;13.60;78.60;;;;;;4947893;29;20026;-75
2020/12/23 06:19:19;;;;;;;10.20;4.70;;;13.50;78.60;;;;;;4946707;29;20083;-75
2020/12/23 06:21:45;;;;;;;7.30;4.38;;;13.40;78.80;;;;;;4930878;29;20291;-76
2020/12/23 06:24:13;;;;;;;8.40;3.88;;;13.40;79.10;;;;;;4946743;29;20050;-75
2020/12/23 06:26:40;;;;;;;6.65;4.15;;;13.40;79.20;;;;;;4946373;29;20039;-76
2020/12/23 06:29:12;;;;;;;10.10;4.35;;;13.30;79.20;;;;;;4929879;29;20607;-76
2020/12/23 06:31:59;;;;;;;11.82;5.05;;;13.30;79.20;;;;;;4929918;29;20031;-76
2020/12/23 06:34:53;;;;;;;6.43;3.85;;;13.30;79.30;;;;;;4929488;29;21207;-75
2020/12/23 06:37:20;;;;;;;7.85;4.53;;;13.20;79.30;;;;;;4927272;29;20054;-75
2020/12/23 06:39:47;;;;;;;12.32;4.82;;;13.30;79.20;;;;;;4946463;29;20296;-75
2020/12/23 06:42:13;;;;;;;7.95;4.43;;;13.10;79.30;;;;;;4929434;29;20054;-76
2020/12/23 06:44:44;;;;;;;11.27;5.13;;;13.10;79.40;;;;;;4946599;29;20192;-75
2020/12/23 06:47:11;;;;;;;9.10;4.68;;;13.10;79.50;;;;;;4945871;29;20047;-76
2020/12/23 06:49:38;;;;;;;7.95;5.13;;;13.00;79.60;;;;;;4946486;29;20315;-76
2020/12/23 06:52:21;;;;;;;16.80;5.78;;;13.00;79.80;;;;;;4946046;29;20054;-76
2020/12/23 06:54:53;;;;;;;14.90;5.78;;;13.00;80.00;;;;;;4946400;29;20153;-75
2020/12/23 06:57:36;;;;;;;10.02;5.38;;;12.90;80.60;;;;;;4945927;29;20028;-76
2020/12/23 07:00:13;;;;;;;12.65;4.88;;;12.90;80.20;;;;;;4946139;29;20062;-75
2020/12/23 07:02:38;;;;;;;14.48;4.38;;;12.80;80.50;;;;;;4945361;29;20031;-75
2020/12/23 07:05:04;;;;;;;10.02;4.00;;;12.80;81.40;;;;;;4945901;29;20022;-75
2020/12/23 07:07:35;;;;;;;10.35;4.60;;;12.80;81.00;;;;;;4946434;29;20019;-75
2020/12/23 07:10:14;;;;;;;16.75;4.65;;;12.80;81.10;;;;;;4946631;29;20011;-75
2020/12/23 07:12:55;;;;;;;10.48;4.47;;;12.80;81.30;;;;;;4929489;29;20027;-76
2020/12/23 07:15:32;;;;;;;8.27;4.68;;;12.80;81.40;;;;;;4946540;29;20231;-76
2020/12/23 07:18:07;;;;;;;7.78;4.88;;;12.80;82.00;;;;;;4946316;29;20090;-75
2020/12/23 07:20:46;;;;;;;11.70;6.00;;;12.80;81.40;;;;;;4929180;29;20019;-75
2020/12/23 07:23:14;;;;;;;9.15;5.82;;;12.80;81.60;;;;;;4927862;29;20024;-75
2020/12/23 07:25:42;;;;;;;8.65;4.57;;;12.80;81.50;;;;;;4946091;29;20323;-75
2020/12/23 07:28:09;;;;;;;11.05;5.13;;;12.90;81.60;;;;;;4946191;29;20020;-75
2020/12/23 07:30:37;;;;;;;9.45;4.93;;;12.90;81.60;;;;;;4946087;29;20302;-76
2020/12/23 07:33:05;;;;;;;10.75;4.57;;;12.80;81.80;;;;;;4944764;29;20023;-75
2020/12/23 07:35:32;;;;;;;12.52;5.18;;;12.90;81.90;;;;;;4945732;29;20039;-75
2020/12/23 07:37:59;;;;;;;9.00;5.20;;;12.90;82.00;;;;;;4945217;29;20016;-74
2020/12/23 07:40:25;;;;;;;;;;;12.90;81.90;;;;;;4946532;29;20259;-75
2020/12/23 07:42:52;;;;;;;10.40;4.25;;;13.00;81.90;;;;;;4928999;29;19907;-75
2020/12/23 07:45:18;;;;;;;8.30;4.85;;;13.00;81.70;;;;;;4945765;29;20311;-75
2020/12/23 07:48:04;;;;;;;10.13;5.20;;;13.00;81.70;;;;;;4928713;29;20055;-74
2020/12/23 07:50:53;;;;;;;8.45;4.97;;;13.00;81.80;;;;;;4921546;29;20131;-75
2020/12/23 07:53:20;;;;;;;8.00;4.40;;;13.00;82.30;;;;;;4939759;29;20062;-74
2020/12/23 07:55:56;;;;;;;5.70;3.70;;;13.00;82.40;;;;;;4927305;29;20027;-75
2020/12/23 07:58:22;;;;;;;9.40;4.45;;;13.00;82.50;;;;;;4936329;29;20035;-75
2020/12/23 08:00:48;;;;;;;6.40;4.00;;;13.00;82.60;;;;;;4936307;29;20079;-75
2020/12/23 08:03:14;;;;;;;14.38;4.65;;;12.90;82.60;;;;;;4926486;29;20322;-75
2020/12/23 08:05:41;;;;;;;12.35;3.90;;;12.90;82.80;;;;;;4943792;29;20102;-75
2020/12/23 08:08:07;;;;;;;9.63;4.13;;;12.90;82.90;;;;;;4944022;29;20203;-75
2020/12/23 08:10:33;;;;;;;8.35;4.20;;;13.00;82.90;;;;;;4927181;29;20027;-75
2020/12/23 08:13:04;;;;;;;10.70;3.90;;;12.90;82.80;;;;;;4944566;29;20028;-75
2020/12/23 08:15:30;;;;;;;9.27;4.07;;;13.00;82.90;;;;;;4944737;29;20034;-75
2020/12/23 08:18:06;;;;;;;11.75;4.55;;;13.00;82.80;;;;;;4944382;29;20019;-76
2020/12/23 08:20:33;;;;;;;9.35;3.75;;;13.00;82.90;;;;;;4927480;29;20376;-75
2020/12/23 08:23:00;;;;;;;9.85;3.60;;;13.10;82.70;;;;;;4944538;29;20043;-76
2020/12/23 08:25:27;;;;;;;8.77;3.80;;;13.20;82.50;;;;;;4941947;29;20070;-76
2020/12/23 08:27:54;;;;;;;5.45;3.15;;;13.30;82.40;;;;;;4924828;29;20024;-75
2020/12/23 08:30:24;;;;;;;7.57;3.47;;;13.30;82.10;;;;;;4934916;29;20024;-76
2020/12/23 08:32:57;;;;;;;6.88;3.33;;;13.40;82.00;;;;;;4945000;29;20098;-75
2020/12/23 08:35:55;;;;;;;6.65;3.45;;;13.40;81.90;;;;;;4925432;29;20303;-75
2020/12/23 08:38:25;;;;;;;6.95;3.90;;;13.40;81.80;;;;;;4914304;29;20032;-75
2020/12/23 08:40:54;;;;;;;6.88;4.18;;;13.50;81.60;;;;;;4909454;29;20181;-75
2020/12/23 08:43:24;;;;;;;12.98;3.95;;;13.40;81.20;;;;;;4926016;29;20024;-75
2020/12/23 08:45:51;;;;;;;13.52;4.97;;;13.50;81.30;;;;;;4933466;29;20031;-75
2020/12/23 08:48:20;;;;;;;13.50;5.22;;;13.50;81.00;;;;;;4946193;29;20047;-75
2020/12/23 08:51:00;;;;;;;11.05;5.45;;;13.40;81.10;;;;;;4948806;29;20023;-75
2020/12/23 08:53:33;;;;;;;10.32;5.45;;;13.40;81.20;;;;;;4948395;29;20235;-75
2020/12/23 08:56:00;;;;;;;9.95;5.20;;;13.50;81.00;;;;;;4931792;29;20024;-75
2020/12/23 08:58:26;;;;;;;13.35;6.20;;;13.60;80.80;;;;;;4948638;29;20094;-76
2020/12/23 09:00:59;;;;;;;14.38;7.38;;;13.60;80.60;;;;;;4931147;29;20354;-75
2020/12/23 09:03:25;;;;;;;15.75;7.38;;;13.60;80.50;;;;;;4946814;29;20050;-76
2020/12/23 09:05:51;;;;;;;37.40;17.02;;;13.60;80.60;;;;;;4948759;29;20106;-75
2020/12/23 09:08:17;;;;;;;57.75;25.70;;;13.60;80.80;;;;;;4931070;29;20024;-75
2020/12/23 09:11:01;;;;;;;94.32;35.55;;;13.60;80.80;;;;;;4948251;29;20386;-76
2020/12/23 09:13:31;;;;;;;83.53;33.88;;;13.60;80.80;;;;;;4948067;29;20023;-76
2020/12/23 09:15:58;;;;;;;64.55;26.55;;;13.60;80.80;;;;;;4938647;29;20062;-76
2020/12/23 09:18:24;;;;;;;41.30;17.08;;;13.60;80.80;;;;;;4948287;29;20042;-76
2020/12/23 09:21:00;;;;;;;31.10;13.85;;;13.60;80.80;;;;;;4934023;29;20034;-76
2020/12/23 09:23:26;;;;;;;30.52;15.82;;;13.70;80.80;;;;;;4931463;29;20035;-75
2020/12/23 09:25:55;;;;;;;21.40;10.40;;;13.70;80.60;;;;;;4947900;29;20024;-75
2020/12/23 09:28:24;;;;;;;19.52;8.40;;;13.70;80.80;;;;;;4948152;29;20046;-76
2020/12/23 09:30:51;;;;;;;19.95;6.53;;;13.70;81.00;;;;;;4948327;29;20027;-76
2020/12/23 09:33:18;;;;;;;;;;;13.70;81.00;;;;;;4948483;29;20024;-76
2020/12/23 09:35:46;;;;;;;9.23;4.97;;;13.80;81.00;;;;;;4931264;29;19906;-76
2020/12/23 09:38:19;;;;;;;8.90;4.60;;;13.90;80.90;;;;;;4947924;29;20103;-76
2020/12/23 09:40:53;;;;;;;14.68;4.88;;;13.90;81.60;;;;;;4948123;29;20051;-76
2020/12/23 09:43:26;;;;;;;24.23;4.82;;;13.90;81.10;;;;;;4931484;29;20032;-75
2020/12/23 09:45:53;;;;;;;7.13;4.40;;;14.00;81.10;;;;;;4947652;29;20034;-76
2020/12/23 09:48:21;;;;;;;7.60;4.25;;;14.00;80.70;;;;;;4948088;29;20343;-75
2020/12/23 09:50:48;;;;;;;13.55;4.63;;;14.10;80.50;;;;;;4948382;29;20024;-75
2020/12/23 09:53:14;;;;;;;4.88;3.45;;;14.10;80.50;;;;;;4948239;29;20024;-76
2020/12/23 09:55:44;;;;;;;10.95;3.88;;;14.20;80.40;;;;;;4948218;29;20028;-77
2020/12/23 09:58:11;;;;;;;8.77;4.13;;;14.30;80.20;;;;;;4931340;29;20066;-76
2020/12/23 10:00:38;;;;;;;5.70;3.90;;;14.40;79.80;;;;;;4929500;29;20211;-76
2020/12/23 10:03:04;;;;;;;16.17;4.63;;;14.50;79.30;;;;;;4947680;29;20099;-76
2020/12/23 10:05:31;;;;;;;10.40;3.97;;;14.50;79.00;;;;;;4930168;29;20039;-76
2020/12/23 10:08:03;;;;;;;13.38;4.20;;;14.50;78.60;;;;;;4946938;29;20086;-76
2020/12/23 10:10:29;;;;;;;15.18;4.82;;;14.60;78.50;;;;;;4924125;29;20026;-75
2020/12/23 10:12:55;;;;;;;18.35;5.40;;;14.50;78.20;;;;;;4930873;29;20034;-76
2020/12/23 10:15:21;;;;;;;13.13;4.85;;;14.60;78.60;;;;;;4947138;29;20019;-75
2020/12/23 10:17:46;;;;;;;12.45;5.22;;;14.60;78.60;;;;;;4940883;29;20038;-76
2020/12/23 10:20:13;;;;;;;13.07;5.32;;;14.70;78.30;;;;;;4935802;29;20019;-76
2020/12/23 10:22:39;;;;;;;11.57;4.47;;;14.70;78.50;;;;;;4938494;29;20220;-76
2020/12/23 10:25:07;;;;;;;11.27;5.63;;;14.70;78.60;;;;;;4921812;29;20043;-75
2020/12/23 10:27:32;;;;;;;13.70;4.88;;;14.70;78.70;;;;;;4937098;29;20260;-75
2020/12/23 10:29:58;;;;;;;11.70;4.05;;;14.70;78.20;;;;;;4932872;29;20031;-76
2020/12/23 10:32:25;;;;;;;10.45;4.32;;;14.70;78.10;;;;;;4938483;29;20031;-76
2020/12/23 10:34:50;;;;;;;11.10;5.28;;;14.80;77.70;;;;;;4941700;29;20316;-76
2020/12/23 10:37:19;;;;;;;7.85;4.47;;;14.80;77.60;;;;;;4938751;29;20019;-76
2020/12/23 10:39:45;;;;;;;8.27;4.68;;;14.90;77.80;;;;;;4947138;29;20172;-76
2020/12/23 10:42:10;;;;;;;12.75;5.38;;;15.00;77.60;;;;;;4946835;29;20038;-76
2020/12/23 10:44:36;;;;;;;9.77;5.18;;;14.90;77.20;;;;;;4930092;29;20090;-76
2020/12/23 10:47:02;;;;;;;13.32;6.38;;;14.90;77.40;;;;;;4926190;29;20066;-75
2020/12/23 10:49:28;;;;;;;11.18;7.05;;;14.90;77.10;;;;;;4928073;29;20043;-76
2020/12/23 10:51:58;;;;;;;11.73;7.03;;;14.90;76.90;;;;;;4927659;29;20034;-76
2020/12/23 10:54:28;;;;;;;14.52;7.90;;;14.90;76.70;;;;;;4926961;29;20020;-76
2020/12/23 10:56:55;;;;;;;18.27;10.18;;;14.90;76.70;;;;;;4926534;29;20031;-76
2020/12/23 10:59:21;;;;;;;21.25;11.85;;;15.00;76.30;;;;;;4926559;29;20020;-76
2020/12/23 11:01:52;;;;;;;25.90;12.80;;;15.00;75.70;;;;;;4913834;29;20072;-76
2020/12/23 11:04:18;;;;;;;17.33;10.88;;;14.90;75.60;;;;;;4908834;29;20021;-75
2020/12/23 11:06:43;;;;;;;21.98;11.35;;;14.80;75.90;;;;;;4907917;29;20051;-76
2020/12/23 11:09:09;;;;;;;20.63;12.25;;;14.80;76.20;;;;;;4909573;29;20017;-76
2020/12/23 11:11:34;;;;;;;21.05;12.38;;;14.70;76.40;;;;;;4927327;29;20020;-75
2020/12/23 11:14:00;;;;;;;22.00;12.68;;;14.70;76.40;;;;;;4927870;29;20016;-76
2020/12/23 11:16:27;;;;;;;21.52;12.52;;;14.70;76.30;;;;;;4927629;29;20031;-75
2020/12/23 11:18:53;;;;;;;20.83;13.05;;;14.70;76.30;;;;;;4926417;29;20295;-76
2020/12/23 11:21:18;;;;;;;21.77;13.68;;;14.70;76.30;;;;;;4927734;29;20091;-77
2020/12/23 11:23:44;;;;;;;21.80;12.80;;;14.70;76.10;;;;;;4927864;29;20039;-75
2020/12/23 11:26:15;;;;;;;21.38;13.82;;;14.70;75.80;;;;;;4914816;29;20040;-76
2020/12/23 11:28:41;;;;;;;23.02;14.40;;;14.60;75.80;;;;;;4919959;29;20248;-75
2020/12/23 11:31:06;;;;;;;26.35;15.23;;;14.50;75.90;;;;;;4925918;29;20334;-76
2020/12/23 11:33:32;;;;;;;22.25;14.50;;;14.60;76.20;;;;;;4926111;29;20024;-76
2020/12/23 11:35:58;;;;;;;25.75;16.02;;;14.50;76.20;;;;;;4927341;29;20020;-75
2020/12/23 11:38:23;;;;;;;27.00;15.25;;;14.40;76.30;;;;;;4928857;29;20031;-75
2020/12/23 11:40:49;;;;;;;26.75;16.02;;;14.50;76.60;;;;;;4927447;29;20028;-76
2020/12/23 11:43:15;;;;;;;25.52;15.95;;;14.50;76.50;;;;;;4925949;29;20040;-75
2020/12/23 11:45:41;;;;;;;41.55;17.25;;;14.40;76.60;;;;;;4926086;29;20028;-75
2020/12/23 11:48:07;;;;;;;23.50;16.35;;;14.30;76.70;;;;;;4908669;29;20043;-76
2020/12/23 11:50:32;;;;;;;25.83;15.75;;;14.30;76.90;;;;;;4921928;29;20229;-75
2020/12/23 11:52:58;;;;;;;24.95;15.43;;;14.30;76.80;;;;;;4916993;29;20028;-75
2020/12/23 11:55:24;;;;;;;27.48;15.82;;;14.40;76.80;;;;;;4927046;29;20016;-76
2020/12/23 11:57:49;;;;;;;24.40;15.25;;;14.40;76.80;;;;;;4926985;29;20032;-76
2020/12/23 12:00:16;;;;;;;29.42;16.50;;;14.40;76.90;;;;;;4925567;29;20158;-75
2020/12/23 12:02:41;;;;;;;29.20;17.73;;;14.40;76.90;;;;;;4906868;29;20139;-76
2020/12/23 12:05:11;;;;;;;42.63;20.92;;;14.40;76.80;;;;;;4922881;29;20020;-75
2020/12/23 12:07:37;;;;;;;35.42;20.83;;;14.40;76.90;;;;;;4925386;29;20110;-76
2020/12/23 12:10:07;;;;;;;30.90;19.67;;;14.40;77.00;;;;;;4926862;29;20043;-75
2020/12/23 12:12:33;;;;;;;29.38;18.30;;;14.30;77.00;;;;;;4926478;29;20024;-76
2020/12/23 12:14:59;;;;;;;27.42;19.02;;;14.20;77.30;;;;;;4926999;29;20030;-76
2020/12/23 12:17:25;;;;;;;35.50;16.33;;;14.30;77.50;;;;;;4926730;29;20743;-75
2020/12/23 12:19:51;;;;;;;23.65;17.33;;;14.30;77.30;;;;;;4911976;29;20048;-75
2020/12/23 12:22:16;;;;;;;29.08;18.38;;;14.40;77.40;;;;;;4906803;29;20057;-76
2020/12/23 12:24:42;;;;;;;27.52;17.42;;;14.40;77.10;;;;;;4920991;29;20020;-76
2020/12/23 12:27:08;;;;;;;28.77;16.95;;;14.30;77.20;;;;;;4926484;29;20059;-75
2020/12/23 12:29:34;;;;;;;26.58;17.52;;;14.30;77.10;;;;;;4925045;29;20027;-76
2020/12/23 12:31:59;;;;;;;30.05;17.73;;;14.30;77.10;;;;;;4925386;29;20199;-75
2020/12/23 12:34:27;;;;;;;29.25;17.08;;;14.30;77.30;;;;;;4920376;29;20024;-75
2020/12/23 12:36:53;;;;;;;24.17;17.25;;;14.30;77.20;;;;;;4925415;29;20020;-76
2020/12/23 12:39:19;;;;;;;28.98;17.55;;;14.20;77.30;;;;;;4924696;29;20035;-75
2020/12/23 12:41:44;;;;;;;30.15;17.67;;;14.30;77.30;;;;;;4926192;29;20016;-75
2020/12/23 12:44:10;;;;;;;23.67;15.77;;;14.20;77.60;;;;;;4926373;29;20056;-76
2020/12/23 12:46:36;;;;;;;29.33;15.82;;;14.30;77.30;;;;;;4931027;29;20110;-76
2020/12/23 12:49:02;;;;;;;27.98;16.77;;;14.30;77.30;;;;;;4937314;29;20387;-75
2020/12/23 12:51:28;;;;;;;28.15;16.13;;;14.30;76.90;;;;;;4926804;29;20035;-76
2020/12/23 12:53:55;;;;;;;34.20;16.73;;;14.30;76.50;;;;;;4924985;29;20020;-75
2020/12/23 12:56:28;;;;;;;24.55;16.25;;;14.20;76.80;;;;;;4925551;29;20267;-75
2020/12/23 12:58:55;;;;;;;26.58;17.27;;;14.20;76.90;;;;;;4928390;29;20299;-76
2020/12/23 13:01:21;;;;;;;37.00;17.90;;;14.10;77.10;;;;;;4943847;29;20047;-75
2020/12/23 13:03:47;;;;;;;29.13;17.48;;;14.10;77.20;;;;;;4944473;29;20027;-76
2020/12/23 13:06:21;;;;;;;31.75;18.08;;;14.10;77.20;;;;;;4944301;29;20095;-75
2020/12/23 13:08:46;;;;;;;27.17;17.48;;;14.00;77.20;;;;;;4945567;29;20227;-76
2020/12/23 13:11:19;;;;;;;24.25;15.90;;;14.00;77.20;;;;;;4944404;29;20026;-75
2020/12/23 13:13:44;;;;;;;25.35;16.55;;;14.00;77.20;;;;;;4943712;29;20028;-76
2020/12/23 13:16:13;;;;;;;28.15;16.33;;;14.00;77.70;;;;;;4945526;29;20311;-75
2020/12/23 13:18:40;;;;;;;28.20;18.17;;;14.00;77.00;;;;;;4945289;29;20067;-75
2020/12/23 13:21:06;;;;;;;29.63;16.00;;;14.00;77.00;;;;;;4927966;29;20039;-75
2020/12/23 13:23:31;;;;;;;24.58;16.63;;;14.00;77.00;;;;;;4945076;29;20039;-76
2020/12/23 13:25:57;;;;;;;24.60;16.55;;;13.80;77.10;;;;;;4944976;29;20068;-76
2020/12/23 13:28:26;;;;;;;31.88;16.27;;;13.80;77.40;;;;;;4945308;29;20066;-75
2020/12/23 13:30:54;;;;;;;30.10;17.33;;;13.90;77.10;;;;;;4943983;29;20016;-75
2020/12/23 13:33:19;;;;;;;37.58;16.77;;;13.90;77.10;;;;;;4938857;29;20024;-75
2020/12/23 13:35:46;;;;;;;27.00;17.00;;;13.90;77.10;;;;;;4948308;29;20023;-75
2020/12/23 13:38:12;;;;;;;24.55;16.30;;;13.80;77.10;;;;;;4948471;29;20082;-76
2020/12/23 13:40:37;;;;;;;31.08;19.00;;;13.90;77.10;;;;;;4947497;29;20024;-75
2020/12/23 13:43:03;;;;;;;24.92;16.98;;;13.80;76.90;;;;;;4947513;29;20032;-77
2020/12/23 13:45:28;;;;;;;26.90;18.00;;;13.80;77.10;;;;;;4948371;29;20191;-76
2020/12/23 13:47:54;;;;;;;27.65;18.20;;;13.70;77.00;;;;;;4948182;29;20032;-76
2020/12/23 13:50:20;;;;;;;31.48;18.33;;;13.60;77.00;;;;;;4948524;29;20031;-75
2020/12/23 13:52:45;;;;;;;31.42;19.42;;;13.60;77.30;;;;;;4948392;29;20033;-76
2020/12/23 13:55:11;;;;;;;34.72;19.33;;;13.60;77.20;;;;;;4948390;29;20047;-76
2020/12/23 13:57:36;;;;;;;32.25;19.98;;;13.50;77.40;;;;;;4948455;29;20261;-76
2020/12/23 14:00:04;;;;;;;35.33;21.50;;;13.50;77.60;;;;;;4948019;29;20024;-76
2020/12/23 14:02:30;;;;;;;43.85;24.70;;;13.50;77.90;;;;;;4947354;29;20024;-76
2020/12/23 14:04:56;;;;;;;39.95;24.25;;;13.50;77.70;;;;;;4931294;29;20243;-76
2020/12/23 14:07:21;;;;;;;35.72;20.30;;;13.50;77.80;;;;;;4948148;29;20015;-77
2020/12/23 14:09:47;;;;;;;36.25;21.02;;;13.50;77.90;;;;;;4930643;29;20299;-76
2020/12/23 14:12:13;;;;;;;31.20;19.10;;;13.50;78.00;;;;;;4948169;29;20028;-76
2020/12/23 14:14:38;;;;;;;31.73;18.67;;;13.50;78.00;;;;;;4947123;29;20075;-75
2020/12/23 14:17:04;;;;;;;34.92;19.92;;;13.40;78.00;;;;;;4938413;29;20296;-75
2020/12/23 14:19:30;;;;;;;28.55;17.33;;;13.40;78.10;;;;;;4928395;29;20020;-75
2020/12/23 14:21:56;;;;;;;32.30;19.00;;;13.30;78.20;;;;;;4928789;29;20177;-75
2020/12/23 14:24:21;;;;;;;28.55;18.08;;;13.30;78.30;;;;;;4911879;29;20071;-77
2020/12/23 14:26:47;;;;;;;31.35;18.58;;;13.40;78.30;;;;;;4928937;29;20043;-75
2020/12/23 14:29:14;;;;;;;32.58;19.92;;;13.40;78.20;;;;;;4927007;29;20142;-75
2020/12/23 14:31:43;;;;;;;31.92;18.73;;;13.40;78.10;;;;;;4928902;29;20012;-76
2020/12/23 14:34:09;;;;;;;30.58;19.50;;;13.40;78.20;;;;;;4928506;29;20035;-76
2020/12/23 14:36:35;;;;;;;37.33;19.67;;;13.30;78.30;;;;;;4930309;29;20047;-75
2020/12/23 14:39:01;;;;;;;37.45;18.33;;;13.30;78.40;;;;;;4930344;29;20023;-75
2020/12/23 14:41:26;;;;;;;29.30;18.30;;;13.30;78.40;;;;;;4947438;29;20362;-76
2020/12/23 14:43:52;;;;;;;31.75;19.40;;;13.30;78.30;;;;;;4947572;29;20055;-76
2020/12/23 14:46:18;;;;;;;29.90;17.90;;;13.20;78.30;;;;;;4943105;29;20028;-76
2020/12/23 14:48:43;;;;;;;32.72;19.00;;;13.30;78.60;;;;;;4930480;29;20071;-76
2020/12/23 14:51:09;;;;;;;38.47;20.67;;;13.30;78.50;;;;;;4946857;29;20315;-76
2020/12/23 14:53:34;;;;;;;36.03;21.42;;;13.30;78.30;;;;;;4946437;29;20322;-76
2020/12/23 14:56:00;;;;;;;30.52;18.63;;;13.30;78.20;;;;;;4929542;29;20020;-75
2020/12/23 14:58:26;;;;;;;31.52;18.65;;;13.20;78.10;;;;;;4937711;29;20131;-76
2020/12/23 15:00:51;;;;;;;31.80;19.17;;;13.20;78.10;;;;;;4940699;29;20024;-76
2020/12/23 15:03:19;;;;;;;31.83;18.88;;;13.20;78.00;;;;;;4943350;29;20032;-76
2020/12/23 15:05:45;;;;;;;31.40;18.65;;;13.20;78.10;;;;;;4921045;29;20138;-76
2020/12/23 15:08:12;;;;;;;30.02;18.75;;;13.10;78.10;;;;;;4938254;29;20014;-76
2020/12/23 15:10:37;;;;;;;32.58;19.08;;;13.10;78.20;;;;;;4933558;29;20024;-75
2020/12/23 15:13:03;;;;;;;30.10;19.40;;;13.10;78.00;;;;;;4940639;29;20354;-76
2020/12/23 15:15:28;;;;;;;33.45;19.38;;;12.90;78.20;;;;;;4929115;29;20037;-75
2020/12/23 15:17:54;;;;;;;31.30;19.75;;;12.90;78.70;;;;;;4946189;29;20055;-75
2020/12/23 15:20:20;;;;;;;32.03;19.23;;;12.90;78.70;;;;;;4945474;29;20023;-76
2020/12/23 15:22:45;;;;;;;32.42;19.05;;;12.90;78.80;;;;;;4946325;29;20422;-76
2020/12/23 15:25:11;;;;;;;33.50;20.77;;;12.90;78.80;;;;;;4929418;29;20024;-76
2020/12/23 15:27:37;;;;;;;38.53;22.42;;;12.80;78.90;;;;;;4946199;29;20097;-76
2020/12/23 15:30:04;;;;;;;33.38;20.83;;;12.80;78.90;;;;;;4928952;29;20341;-76
2020/12/23 15:32:30;;;;;;;38.75;21.10;;;12.70;78.90;;;;;;4929138;29;20054;-75
2020/12/23 15:34:56;;;;;;;33.63;20.85;;;12.70;79.00;;;;;;4939311;29;20087;-76
2020/12/23 15:37:21;;;;;;;33.47;21.33;;;12.70;79.10;;;;;;4926989;29;20291;-76
2020/12/23 15:39:47;;;;;;;42.72;24.17;;;12.70;79.30;;;;;;4926813;29;20095;-76
2020/12/23 15:42:12;;;;;;;42.97;26.00;;;12.60;79.30;;;;;;4926802;29;20098;-76
2020/12/23 15:44:38;;;;;;;45.50;26.30;;;12.60;79.50;;;;;;4926772;29;20043;-75
2020/12/23 15:47:04;;;;;;;50.80;27.35;;;12.60;79.50;;;;;;4936108;29;20267;-75
2020/12/23 15:49:29;;;;;;;46.08;27.25;;;12.60;79.60;;;;;;4945272;29;20024;-76
2020/12/23 15:52:00;;;;;;;57.33;29.83;;;12.60;79.50;;;;;;4945091;29;20096;-76
2020/12/23 15:54:27;;;;;;;47.35;27.35;;;12.70;79.40;;;;;;4945338;29;20015;-76
2020/12/23 15:56:53;;;;;;;45.15;25.98;;;12.70;79.20;;;;;;4945457;29;20017;-76
2020/12/23 15:59:18;;;;;;;43.20;25.45;;;12.70;79.30;;;;;;4926839;29;20555;-76
2020/12/23 16:01:44;;;;;;;39.22;22.27;;;12.70;79.30;;;;;;4927483;29;20111;-76
2020/12/23 16:04:10;;;;;;;34.33;20.15;;;12.70;79.30;;;;;;4937724;29;20035;-76
2020/12/23 16:06:35;;;;;;;37.90;20.85;;;12.70;79.20;;;;;;4933661;29;20342;-76
2020/12/23 16:09:01;;;;;;;38.25;23.10;;;12.70;79.20;;;;;;4924668;29;20016;-76
2020/12/23 16:11:27;;;;;;;43.90;24.20;;;12.60;79.30;;;;;;4935081;29;20020;-76
2020/12/23 16:13:52;;;;;;;37.53;22.65;;;12.60;79.40;;;;;;4915367;29;20362;-75
2020/12/23 16:16:19;;;;;;;42.03;23.55;;;12.60;79.50;;;;;;4925168;29;20024;-75
2020/12/23 16:18:45;;;;;;;46.50;23.20;;;12.60;79.60;;;;;;4932059;29;20028;-76
2020/12/23 16:21:10;;;;;;;43.72;27.17;;;12.50;79.70;;;;;;4936265;29;20382;-76
2020/12/23 16:23:36;;;;;;;37.95;23.10;;;12.60;79.90;;;;;;4923850;29;20172;-75